createdAt,value
2023-04-24T00:02:14.127Z,71.78
2023-04-24T00:04:42.531Z,71.37
2023-04-24T00:07:10.021Z,72.29
2023-04-24T00:09:37.205Z,71.91
2023-04-24T00:12:07.191Z,72.31
2023-04-24T00:14:34.326Z,72.41
2023-04-24T00:17:01.529Z,72.50
2023-04-24T00:19:29.667Z,72.80
2023-04-24T00:21:56.720Z,72.77
2023-04-24T00:24:23.687Z,72.07
2023-04-24T00:26:50.619Z,72.42
2023-04-24T00:29:17.749Z,72.60
2023-04-24T00:31:44.830Z,72.36
2023-04-24T00:34:12.905Z,72.37
2023-04-24T00:36:39.849Z,72.14
2023-04-24T00:39:06.907Z,72.31
2023-04-24T00:41:34.000Z,72.89
2023-04-24T00:44:00.995Z,73.08
2023-04-24T00:46:28.086Z,72.17
2023-04-24T00:48:56.884Z,72.92
2023-04-24T00:51:25.773Z,72.95
2023-04-24T00:53:53.311Z,73.30
2023-04-24T00:56:21.112Z,73.19
2023-04-24T00:58:49.059Z,72.17
2023-04-24T01:01:16.212Z,73.15
2023-04-24T01:03:44.132Z,72.90
2023-04-24T01:06:11.832Z,72.65
2023-04-24T01:08:40.960Z,73.00
2023-04-24T01:11:08.217Z,73.07
2023-04-24T01:13:35.874Z,73.63
2023-04-24T01:16:03.891Z,73.49
2023-04-24T01:18:31.084Z,72.93
2023-04-24T01:21:00.091Z,73.54
2023-04-24T01:23:27.598Z,73.37
2023-04-24T01:25:54.894Z,73.35
2023-04-24T01:28:22.843Z,73.53
2023-04-24T01:30:50.032Z,72.67
2023-04-24T01:33:17.081Z,73.30
2023-04-24T01:35:44.421Z,74.00
2023-04-24T01:38:11.910Z,73.81
2023-04-24T01:40:39.214Z,73.84
2023-04-24T01:43:06.648Z,73.63
2023-04-24T01:45:33.861Z,73.29
2023-04-24T01:48:01.683Z,73.72
2023-04-24T01:50:29.321Z,73.56
2023-04-24T01:52:56.624Z,74.51
2023-04-24T01:55:23.614Z,74.56
2023-04-24T01:57:51.813Z,74.43
2023-04-24T02:00:19.735Z,76.00
2023-04-24T02:02:48.407Z,75.90
2023-04-24T02:05:16.349Z,75.16
2023-04-24T02:07:43.453Z,75.06
2023-04-24T02:10:11.271Z,75.33
2023-04-24T02:12:42.929Z,75.36
2023-04-24T02:15:10.490Z,75.34
2023-04-24T02:17:38.316Z,75.44
2023-04-24T02:20:07.722Z,75.90
2023-04-24T02:22:34.759Z,76.15
2023-04-24T02:25:03.126Z,75.89
2023-04-24T02:27:30.436Z,75.73
2023-04-24T02:29:57.723Z,76.45
2023-04-24T02:32:24.888Z,76.03
2023-04-24T02:34:52.217Z,77.23
2023-04-24T02:37:19.400Z,76.42
2023-04-24T02:39:46.445Z,76.34
2023-04-24T02:42:13.526Z,77.44
2023-04-24T02:44:40.538Z,77.73
2023-04-24T02:47:08.728Z,77.30
2023-04-24T02:49:35.744Z,77.06
2023-04-24T02:52:02.733Z,77.98
2023-04-24T02:54:29.932Z,77.58
2023-04-24T02:56:57.987Z,77.12
2023-04-24T02:59:25.984Z,77.68
2023-04-24T03:01:52.938Z,77.78
2023-04-24T03:04:21.505Z,78.52
2023-04-24T03:06:49.084Z,79.31
2023-04-24T03:09:16.177Z,79.61
2023-04-24T03:11:43.228Z,79.91
2023-04-24T03:14:10.345Z,79.89
2023-04-24T03:16:39.640Z,80.25
2023-04-24T03:19:07.574Z,80.67
2023-04-24T03:21:44.024Z,80.77
2023-04-24T03:24:11.553Z,80.80
2023-04-24T03:26:38.800Z,80.93
2023-04-24T03:29:18.498Z,80.49
2023-04-24T03:31:45.918Z,79.81
2023-04-24T03:34:13.062Z,80.66
2023-04-24T03:36:40.183Z,80.30
2023-04-24T03:39:08.897Z,80.52
2023-04-24T03:41:37.804Z,80.74
2023-04-24T03:44:10.933Z,80.14
2023-04-24T03:46:38.294Z,80.28
2023-04-24T03:49:05.362Z,80.17
2023-04-24T03:51:36.561Z,80.56
2023-04-24T03:54:23.881Z,81.97
2023-04-24T03:56:52.510Z,80.12
2023-04-24T03:59:19.815Z,80.26
2023-04-24T04:01:53.444Z,81.07
2023-04-24T04:04:21.502Z,80.79
2023-04-24T04:06:49.134Z,81.23
2023-04-24T04:09:16.702Z,81.64
2023-04-24T04:11:43.896Z,81.61
2023-04-24T04:14:12.830Z,82.54
2023-04-24T04:16:42.513Z,82.33
2023-04-24T04:19:10.452Z,82.95
2023-04-24T04:21:37.568Z,83.66
2023-04-24T04:24:23.909Z,84.68
2023-04-24T04:26:53.402Z,84.78
2023-04-24T04:29:27.106Z,84.85
2023-04-24T04:31:54.305Z,85.67
2023-04-24T04:34:22.329Z,86.46
2023-04-24T04:36:50.230Z,87.58
2023-04-24T04:39:37.435Z,89.04
2023-04-24T04:42:11.690Z,89.45
2023-04-24T04:44:44.062Z,89.40
2023-04-24T04:47:17.361Z,89.78
2023-04-24T04:49:45.228Z,90.89
2023-04-24T04:52:26.068Z,91.27
2023-04-24T04:54:58.778Z,92.00
2023-04-24T04:57:37.010Z,93.41
2023-04-24T05:00:08.095Z,93.47
2023-04-24T05:02:44.226Z,93.23
2023-04-24T05:05:11.898Z,93.55
2023-04-24T05:07:39.083Z,94.06
2023-04-24T05:10:06.754Z,93.49
2023-04-24T05:12:33.770Z,92.33
2023-04-24T05:15:02.805Z,92.01
2023-04-24T05:17:30.351Z,90.91
2023-04-24T05:19:58.730Z,90.38
2023-04-24T05:22:27.994Z,89.11
2023-04-24T05:24:57.744Z,88.88
2023-04-24T05:27:34.685Z,89.20
2023-04-24T05:30:04.497Z,88.64
2023-04-24T05:32:31.657Z,88.29
2023-04-24T05:34:58.672Z,88.42
2023-04-24T05:37:26.982Z,87.96
2023-04-24T05:39:56.719Z,88.05
2023-04-24T05:42:24.025Z,87.99
2023-04-24T05:44:52.809Z,88.61
2023-04-24T05:47:22.801Z,88.75
2023-04-24T05:49:51.052Z,89.28
2023-04-24T05:52:18.114Z,89.96
2023-04-24T05:54:45.554Z,90.50
2023-04-24T05:57:16.085Z,90.71
2023-04-24T05:59:54.902Z,90.07
2023-04-24T06:02:23.337Z,90.00
2023-04-24T06:04:50.981Z,89.52
2023-04-24T06:07:18.524Z,90.25
2023-04-24T06:09:45.936Z,89.70
2023-04-24T06:12:13.148Z,88.96
2023-04-24T06:15:10.003Z,87.97
2023-04-24T06:17:57.811Z,89.23
2023-04-24T06:20:25.661Z,87.63
2023-04-24T06:22:52.733Z,88.10
2023-04-24T06:25:20.445Z,85.94
2023-04-24T06:27:47.865Z,86.60
2023-04-24T06:30:15.009Z,83.88
2023-04-24T06:32:42.178Z,84.06
2023-04-24T06:35:10.937Z,84.91
2023-04-24T06:37:40.162Z,83.86
2023-04-24T06:40:08.739Z,85.02
2023-04-24T06:42:36.565Z,84.86
2023-04-24T06:45:05.099Z,84.83
2023-04-24T06:47:32.457Z,84.67
2023-04-24T06:49:59.884Z,84.66
2023-04-24T06:52:26.986Z,83.11
2023-04-24T06:54:53.975Z,83.64
2023-04-24T06:57:21.049Z,85.27
2023-04-24T06:59:48.088Z,85.16
2023-04-24T07:02:15.205Z,83.31
2023-04-24T07:04:42.912Z,82.86
2023-04-24T07:07:14.199Z,84.25
2023-04-24T07:09:45.733Z,84.89
2023-04-24T07:12:13.475Z,84.66
2023-04-24T07:14:41.237Z,84.42
2023-04-24T07:17:08.353Z,80.20
2023-04-24T07:19:36.663Z,80.66
2023-04-24T07:22:04.545Z,82.46
2023-04-24T07:24:33.393Z,82.72
2023-04-24T07:27:02.175Z,84.03
2023-04-24T07:29:29.234Z,84.62
2023-04-24T07:31:57.676Z,84.42
2023-04-24T07:34:25.112Z,83.74
2023-04-24T07:36:52.345Z,83.46
2023-04-24T07:39:20.114Z,82.24
2023-04-24T07:41:47.118Z,82.83
2023-04-24T07:44:14.325Z,82.60
2023-04-24T07:46:41.802Z,82.29
2023-04-24T07:49:13.654Z,82.13
2023-04-24T07:51:41.462Z,81.05
2023-04-24T07:54:08.535Z,81.48
2023-04-24T07:56:37.261Z,81.92
2023-04-24T07:59:07.313Z,82.17
2023-04-24T08:01:34.438Z,81.54
2023-04-24T08:04:01.867Z,81.00
2023-04-24T08:06:31.635Z,81.21
2023-04-24T08:08:59.633Z,81.29
2023-04-24T08:11:27.416Z,79.68
2023-04-24T08:13:55.817Z,79.48
2023-04-24T08:16:25.300Z,79.44
2023-04-24T08:18:52.989Z,79.80
2023-04-24T08:21:21.810Z,80.04
2023-04-24T08:23:48.916Z,78.96
2023-04-24T08:26:16.053Z,78.73
2023-04-24T08:28:44.118Z,79.07
2023-04-24T08:31:11.387Z,78.51
2023-04-24T08:33:38.532Z,77.23
2023-04-24T08:36:06.680Z,75.83
2023-04-24T08:38:34.242Z,75.48
2023-04-24T08:41:02.353Z,75.88
2023-04-24T08:43:29.586Z,76.10
2023-04-24T08:45:58.256Z,74.16
2023-04-24T08:48:30.827Z,72.76
2023-04-24T08:51:00.241Z,72.63
2023-04-24T08:53:28.058Z,72.05
2023-04-24T08:55:56.750Z,69.92
2023-04-24T08:58:26.434Z,70.24
2023-04-24T09:00:56.640Z,72.25
2023-04-24T09:03:24.647Z,70.69
2023-04-24T09:05:53.649Z,72.23
2023-04-24T09:08:21.021Z,72.34
2023-04-24T09:10:50.573Z,71.41
2023-04-24T09:13:20.736Z,70.54
2023-04-24T09:15:48.501Z,63.53
2023-04-24T09:18:15.680Z,64.88
2023-04-24T09:21:02.543Z,62.94
2023-04-24T09:23:31.410Z,62.63
2023-04-24T09:26:06.188Z,64.60
2023-04-24T09:28:36.013Z,66.54
2023-04-24T09:31:06.896Z,63.30
2023-04-24T09:33:34.508Z,69.08
2023-04-24T09:36:01.867Z,63.99
2023-04-24T09:38:47.555Z,62.23
2023-04-24T09:41:15.209Z,62.92
2023-04-24T09:43:42.287Z,58.78
2023-04-24T09:46:11.310Z,61.70
2023-04-24T09:48:38.964Z,54.59
2023-04-24T09:51:13.565Z,57.50
2023-04-24T09:53:41.245Z,57.69
2023-04-24T09:56:14.118Z,57.70
2023-04-24T09:58:41.402Z,54.97
2023-04-24T10:01:08.659Z,56.84
2023-04-24T10:03:43.201Z,58.64
2023-04-24T10:06:14.702Z,57.12
2023-04-24T10:08:41.785Z,57.09
2023-04-24T10:11:09.537Z,57.21
2023-04-24T10:13:37.326Z,58.01
2023-04-24T10:16:05.227Z,58.44
2023-04-24T10:18:33.466Z,59.23
2023-04-24T10:21:01.350Z,54.50
2023-04-24T10:23:29.569Z,54.90
2023-04-24T10:25:57.429Z,51.74
2023-04-24T10:28:26.181Z,55.00
2023-04-24T10:30:56.424Z,51.26
2023-04-24T10:33:24.669Z,53.54
2023-04-24T10:35:52.979Z,53.30
2023-04-24T10:38:26.160Z,58.25
2023-04-24T10:40:58.313Z,53.66
2023-04-24T10:43:25.508Z,54.50
2023-04-24T10:46:06.743Z,51.61
2023-04-24T10:48:34.914Z,53.83
2023-04-24T10:51:02.883Z,51.71
2023-04-24T10:53:31.548Z,51.43
2023-04-24T10:56:10.922Z,50.52
2023-04-24T10:58:41.269Z,52.26
2023-04-24T11:01:08.667Z,53.47
2023-04-24T11:03:37.708Z,51.73
2023-04-24T11:06:11.320Z,54.00
2023-04-24T11:08:40.085Z,51.12
2023-04-24T11:11:16.015Z,50.97
2023-04-24T11:13:55.752Z,52.46
2023-04-24T11:16:39.614Z,51.65
2023-04-24T11:19:16.397Z,50.70
2023-04-24T11:21:48.418Z,50.04
2023-04-24T11:24:53.507Z,52.64
2023-04-24T11:27:31.596Z,55.14
2023-04-24T11:29:59.069Z,53.97
2023-04-24T11:32:29.977Z,52.05
2023-04-24T11:35:02.417Z,55.16
2023-04-24T11:37:41.018Z,52.17
2023-04-24T11:40:18.792Z,49.05
2023-04-24T11:42:47.191Z,50.41
2023-04-24T11:45:16.495Z,50.32
2023-04-24T11:47:44.324Z,50.00
2023-04-24T11:50:16.581Z,51.38
2023-04-24T11:52:48.235Z,51.09
2023-04-24T11:55:15.272Z,56.05
2023-04-24T11:57:46.469Z,51.33
2023-04-24T12:00:25.224Z,50.51
2023-04-24T12:02:53.352Z,49.68
2023-04-24T12:05:22.675Z,51.37
2023-04-24T12:07:50.691Z,48.70
2023-04-24T12:10:25.674Z,48.27
2023-04-24T12:12:54.146Z,50.68
2023-04-24T12:15:22.399Z,50.13
2023-04-24T12:17:52.462Z,49.85
2023-04-24T12:20:29.069Z,49.60
2023-04-24T12:22:58.520Z,48.94
2023-04-24T12:25:28.747Z,50.79
2023-04-24T12:28:12.040Z,50.26
2023-04-24T12:30:49.625Z,51.87
2023-04-24T12:33:21.241Z,49.65
2023-04-24T12:35:50.085Z,50.67
2023-04-24T12:38:17.347Z,50.05
2023-04-24T12:40:44.952Z,50.77
2023-04-24T12:43:19.698Z,51.35
2023-04-24T12:45:48.623Z,56.38
2023-04-24T12:48:15.807Z,57.22
2023-04-24T12:50:46.353Z,59.88
2023-04-24T12:53:15.128Z,59.98
2023-04-24T12:55:42.304Z,60.98
2023-04-24T12:58:09.525Z,58.71
2023-04-24T13:00:37.011Z,60.35
2023-04-24T13:03:04.703Z,58.01
2023-04-24T13:05:31.921Z,59.01
2023-04-24T13:07:59.429Z,57.24
2023-04-24T13:10:26.429Z,55.29
2023-04-24T13:12:53.597Z,55.16
2023-04-24T13:15:21.267Z,54.33
2023-04-24T13:17:48.413Z,53.66
2023-04-24T13:20:16.742Z,55.72
2023-04-24T13:22:43.732Z,58.28
2023-04-24T13:25:11.400Z,55.76
2023-04-24T13:27:41.335Z,57.56
2023-04-24T13:30:09.160Z,55.18
2023-04-24T13:32:36.643Z,55.45
2023-04-24T13:35:03.901Z,52.72
2023-04-24T13:37:31.170Z,54.27
2023-04-24T13:39:58.119Z,55.40
2023-04-24T13:42:25.169Z,51.63
2023-04-24T13:44:52.360Z,51.58
2023-04-24T13:47:19.390Z,52.38
2023-04-24T13:49:46.390Z,52.78
2023-04-24T13:52:13.425Z,52.18
2023-04-24T13:54:40.533Z,53.62
2023-04-24T13:57:07.468Z,54.74
2023-04-24T13:59:36.904Z,55.63
2023-04-24T14:02:03.944Z,56.00
2023-04-24T14:04:31.438Z,55.21
2023-04-24T14:06:58.467Z,57.07
2023-04-24T14:09:25.439Z,58.77
2023-04-24T14:11:53.357Z,57.73
2023-04-24T14:14:20.347Z,56.13
2023-04-24T14:16:47.390Z,55.20
2023-04-24T14:19:14.438Z,58.24
2023-04-24T14:21:41.374Z,57.83
2023-04-24T14:24:09.644Z,57.30
2023-04-24T14:26:36.921Z,60.39
2023-04-24T14:29:14.235Z,61.29
2023-04-24T14:31:42.581Z,60.98
2023-04-24T14:34:10.391Z,61.94
2023-04-24T14:36:38.712Z,61.24
2023-04-24T14:39:08.061Z,61.06
2023-04-24T14:41:38.687Z,61.88
2023-04-24T14:44:06.378Z,62.22
2023-04-24T14:46:33.503Z,62.31
2023-04-24T14:49:00.659Z,60.79
2023-04-24T14:51:28.188Z,58.40
2023-04-24T14:53:55.520Z,58.16
2023-04-24T14:56:22.494Z,60.14
2023-04-24T14:58:49.642Z,60.81
2023-04-24T15:01:17.809Z,59.99
2023-04-24T15:03:45.904Z,59.41
2023-04-24T15:06:13.577Z,59.59
2023-04-24T15:08:40.527Z,57.35
2023-04-24T15:11:10.431Z,58.39
2023-04-24T15:13:38.561Z,57.14
2023-04-24T15:16:06.575Z,55.06
2023-04-24T15:18:33.530Z,55.48
2023-04-24T15:21:00.557Z,54.34
2023-04-24T15:23:27.530Z,55.70
2023-04-24T15:25:54.532Z,56.27
2023-04-24T15:28:22.875Z,56.38
2023-04-24T15:30:50.025Z,55.51
2023-04-24T15:33:17.230Z,56.32
2023-04-24T15:35:44.325Z,55.85
2023-04-24T15:38:11.304Z,56.86
2023-04-24T15:40:38.423Z,57.12
2023-04-24T15:43:05.547Z,56.61
2023-04-24T15:45:34.125Z,57.43
2023-04-24T15:48:01.833Z,57.96
2023-04-24T15:50:29.377Z,58.09
2023-04-24T15:52:56.410Z,58.45
2023-04-24T15:55:23.548Z,58.06
2023-04-24T15:57:50.569Z,58.82
2023-04-24T16:00:18.463Z,58.78
2023-04-24T16:02:58.032Z,59.31
2023-04-24T16:05:25.290Z,58.87
2023-04-24T16:07:52.401Z,58.72
2023-04-24T16:10:19.534Z,58.31
2023-04-24T16:12:51.730Z,58.23
2023-04-24T16:15:19.695Z,58.66
2023-04-24T16:17:47.311Z,59.35
2023-04-24T16:20:15.345Z,59.90
2023-04-24T16:22:42.888Z,59.13
2023-04-24T16:25:10.977Z,59.54
2023-04-24T16:27:38.837Z,58.92
2023-04-24T16:30:07.244Z,59.61
2023-04-24T16:32:34.860Z,59.60
2023-04-24T16:35:02.458Z,59.10
2023-04-24T16:37:30.929Z,59.29
2023-04-24T16:39:58.487Z,59.14
2023-04-24T16:42:26.742Z,59.07
2023-04-24T16:44:54.245Z,59.26
2023-04-24T16:47:22.163Z,59.32
2023-04-24T16:49:50.353Z,60.00
2023-04-24T16:52:17.836Z,59.58
2023-04-24T16:54:45.206Z,59.95
2023-04-24T16:57:12.824Z,60.94
2023-04-24T16:59:40.302Z,62.17
2023-04-24T17:02:10.328Z,61.99
2023-04-24T17:04:37.952Z,61.81
2023-04-24T17:07:05.687Z,62.37
2023-04-24T17:09:33.398Z,61.53
2023-04-24T17:12:02.548Z,62.46
2023-04-24T17:14:30.314Z,62.52
2023-04-24T17:16:58.029Z,63.27
2023-04-24T17:19:26.654Z,62.83
2023-04-24T17:21:58.109Z,64.01
2023-04-24T17:24:25.735Z,63.73
2023-04-24T17:26:56.409Z,65.44
2023-04-24T17:29:26.542Z,66.13
2023-04-24T17:31:54.172Z,64.98
2023-04-24T17:34:21.883Z,65.87
2023-04-24T17:36:49.303Z,65.71
2023-04-24T17:39:17.284Z,65.74
2023-04-24T17:41:44.639Z,66.18
2023-04-24T17:44:11.856Z,66.04
2023-04-24T17:46:38.925Z,65.94
2023-04-24T17:49:06.057Z,66.60
2023-04-24T17:51:33.018Z,65.34
2023-04-24T17:54:00.048Z,65.46
2023-04-24T17:56:27.136Z,65.18
2023-04-24T17:58:54.273Z,65.82
2023-04-24T18:01:21.879Z,65.43
2023-04-24T18:03:49.095Z,65.04
2023-04-24T18:06:17.766Z,65.18
2023-04-24T18:08:44.833Z,64.35
2023-04-24T18:11:11.858Z,64.52
2023-04-24T18:13:41.408Z,64.22
2023-04-24T18:16:08.399Z,63.19
2023-04-24T18:18:35.652Z,63.73
2023-04-24T18:21:02.700Z,63.94
2023-04-24T18:23:30.733Z,63.73
2023-04-24T18:25:57.672Z,62.87
2023-04-24T18:28:24.661Z,63.12
2023-04-24T18:30:51.800Z,63.60
2023-04-24T18:33:19.149Z,63.71
2023-04-24T18:35:46.118Z,62.45
2023-04-24T18:38:13.079Z,62.67
2023-04-24T18:40:40.137Z,63.71
2023-04-24T18:43:07.260Z,63.88
2023-04-24T18:45:34.294Z,63.67
2023-04-24T18:48:01.473Z,64.06
2023-04-24T18:50:31.764Z,63.62
2023-04-24T18:52:59.248Z,62.60
2023-04-24T18:55:26.203Z,62.28
2023-04-24T18:57:53.163Z,62.69
2023-04-24T19:00:20.302Z,63.11
2023-04-24T19:02:47.570Z,63.12
2023-04-24T19:05:14.724Z,62.97
2023-04-24T19:07:42.435Z,62.82
2023-04-24T19:10:10.285Z,63.22
2023-04-24T19:12:37.520Z,63.20
2023-04-24T19:15:05.357Z,62.82
2023-04-24T19:17:32.765Z,63.25
2023-04-24T19:19:59.802Z,63.81
2023-04-24T19:22:29.122Z,63.58
2023-04-24T19:24:58.641Z,64.00
2023-04-24T19:27:25.687Z,63.94
2023-04-24T19:29:52.748Z,64.57
2023-04-24T19:32:20.147Z,64.76
2023-04-24T19:34:47.260Z,64.70
2023-04-24T19:37:14.591Z,64.86
2023-04-24T19:39:41.702Z,65.20
2023-04-24T19:42:08.811Z,65.05
2023-04-24T19:44:36.084Z,65.01
2023-04-24T19:47:03.295Z,65.20
2023-04-24T19:49:31.194Z,65.33
2023-04-24T19:51:58.274Z,65.74
2023-04-24T19:54:25.940Z,66.90
2023-04-24T19:56:53.037Z,66.69
2023-04-24T19:59:20.050Z,66.70
2023-04-24T20:01:47.279Z,67.51
2023-04-24T20:04:14.592Z,67.66
2023-04-24T20:06:41.838Z,67.42
2023-04-24T20:09:08.896Z,67.56
2023-04-24T20:11:36.223Z,67.39
2023-04-24T20:14:03.952Z,67.63
2023-04-24T20:16:31.591Z,67.43
2023-04-24T20:18:59.445Z,67.60
2023-04-24T20:21:26.971Z,67.94
2023-04-24T20:23:54.224Z,67.71
2023-04-24T20:26:21.719Z,67.94
2023-04-24T20:28:49.224Z,68.01
2023-04-24T20:31:16.729Z,67.62
2023-04-24T20:33:45.716Z,67.97
2023-04-24T20:36:15.750Z,68.06
2023-04-24T20:38:42.963Z,68.89
2023-04-24T20:41:10.576Z,69.10
2023-04-24T20:43:37.831Z,70.71
2023-04-24T20:46:05.645Z,70.02
2023-04-24T20:48:32.816Z,71.16
2023-04-24T20:51:02.269Z,70.69
2023-04-24T20:53:29.410Z,70.98
2023-04-24T20:55:56.409Z,72.39
2023-04-24T20:58:24.250Z,72.60
2023-04-24T21:00:52.023Z,73.38
2023-04-24T21:03:20.041Z,72.25
2023-04-24T21:05:47.281Z,72.29
2023-04-24T21:08:14.644Z,72.09
2023-04-24T21:10:41.961Z,72.58
2023-04-24T21:13:09.240Z,72.76
2023-04-24T21:15:36.318Z,72.68
2023-04-24T21:18:04.368Z,73.22
2023-04-24T21:20:31.500Z,74.60
2023-04-24T21:22:58.500Z,73.89
2023-04-24T21:25:26.331Z,73.58
2023-04-24T21:27:53.998Z,75.83
2023-04-24T21:30:22.269Z,76.37
2023-04-24T21:32:49.509Z,76.56
2023-04-24T21:35:16.688Z,76.18
2023-04-24T21:37:43.896Z,75.18
2023-04-24T21:40:16.029Z,75.77
2023-04-24T21:42:44.766Z,75.72
2023-04-24T21:45:12.196Z,75.29
2023-04-24T21:47:39.384Z,76.88
2023-04-24T21:50:07.011Z,73.31
2023-04-24T21:52:34.097Z,72.09
2023-04-24T21:55:01.394Z,72.34
2023-04-24T21:57:29.694Z,74.68
2023-04-24T21:59:56.877Z,72.85
2023-04-24T22:02:24.044Z,71.49
2023-04-24T22:04:52.144Z,72.79
2023-04-24T22:07:19.342Z,73.69
2023-04-24T22:09:46.442Z,72.57
2023-04-24T22:12:13.558Z,73.79
2023-04-24T22:14:40.797Z,73.58
2023-04-24T22:17:09.705Z,74.55
2023-04-24T22:19:36.841Z,74.15
2023-04-24T22:22:04.106Z,74.79
2023-04-24T22:24:31.884Z,73.95
2023-04-24T22:26:59.211Z,75.66
2023-04-24T22:29:26.581Z,76.10
2023-04-24T22:31:56.445Z,76.43
2023-04-24T22:34:23.644Z,74.56
2023-04-24T22:36:50.813Z,75.02
2023-04-24T22:39:18.019Z,75.27
2023-04-24T22:41:45.223Z,77.82
2023-04-24T22:44:12.186Z,76.31
2023-04-24T22:46:39.335Z,75.11
2023-04-24T22:49:06.381Z,76.37
2023-04-24T22:51:33.740Z,78.08
2023-04-24T22:54:05.355Z,76.68
2023-04-24T22:56:32.653Z,75.42
2023-04-24T22:58:59.700Z,74.72
2023-04-24T23:01:30.209Z,75.01
2023-04-24T23:03:57.372Z,76.08
2023-04-24T23:06:24.532Z,77.31
2023-04-24T23:08:51.757Z,76.29
2023-04-24T23:11:20.081Z,78.06
2023-04-24T23:13:47.350Z,78.06
2023-04-24T23:16:14.488Z,78.73
2023-04-24T23:18:41.532Z,80.52
2023-04-24T23:21:12.448Z,79.82
2023-04-24T23:23:39.770Z,80.66
2023-04-24T23:26:06.847Z,81.98
2023-04-24T23:28:33.934Z,83.03
2023-04-24T23:31:00.958Z,83.62
2023-04-24T23:33:28.693Z,83.15
2023-04-24T23:35:56.137Z,83.07
2023-04-24T23:38:23.128Z,83.25
2023-04-24T23:40:52.155Z,82.72
2023-04-24T23:43:19.170Z,82.29
2023-04-24T23:45:46.230Z,82.34
2023-04-24T23:48:13.364Z,81.57
2023-04-24T23:50:40.742Z,81.85
2023-04-24T23:53:08.026Z,82.36
2023-04-24T23:55:35.574Z,81.37
2023-04-24T23:58:02.682Z,80.06
